sensor_id;sensor_type;location;lat;lon;timestamp;P1;durP1;ratioP1;P2;durP2;ratioP2
14052;SDS011;7101;51.600;7.310;2023-03-12T00:01:14;26.13;;;14.77;;
14052;SDS011;7101;51.600;7.310;2023-03-12T00:03:42;26.63;;;14.73;;
14052;SDS011;7101;51.600;7.310;2023-03-12T00:06:10;25.00;;;15.38;;
14052;SDS011;7101;51.600;7.310;2023-03-12T00:08:37;25.13;;;15.10;;
14052;SDS011;7101;51.600;7.310;2023-03-12T00:11:04;26.23;;;14.98;;
14052;SDS011;7101;51.600;7.310;2023-03-12T00:13:34;28.05;;;15.23;;
14052;SDS011;7101;51.600;7.310;2023-03-12T00:16:04;30.75;;;16.05;;
14052;SDS011;7101;51.600;7.310;2023-03-12T00:18:32;25.70;;;16.08;;
14052;SDS011;7101;51.600;7.310;2023-03-12T00:20:59;26.52;;;15.38;;
14052;SDS011;7101;51.600;7.310;2023-03-12T00:23:26;24.27;;;14.90;;
14052;SDS011;7101;51.600;7.310;2023-03-12T00:25:52;24.63;;;15.45;;
14052;SDS011;7101;51.600;7.310;2023-03-12T00:28:19;25.92;;;15.05;;
14052;SDS011;7101;51.600;7.310;2023-03-12T00:30:47;26.20;;;14.65;;
14052;SDS011;7101;51.600;7.310;2023-03-12T00:33:16;20.05;;;13.63;;
14052;SDS011;7101;51.600;7.310;2023-03-12T00:35:42;24.65;;;14.30;;
14052;SDS011;7101;51.600;7.310;2023-03-12T00:38:10;23.98;;;13.40;;
14052;SDS011;7101;51.600;7.310;2023-03-12T00:40:37;22.25;;;13.82;;
14052;SDS011;7101;51.600;7.310;2023-03-12T00:43:04;21.95;;;13.90;;
14052;SDS011;7101;51.600;7.310;2023-03-12T00:45:31;26.08;;;13.52;;
14052;SDS011;7101;51.600;7.310;2023-03-12T00:47:59;22.58;;;12.63;;
14052;SDS011;7101;51.600;7.310;2023-03-12T00:50:25;22.33;;;12.40;;
14052;SDS011;7101;51.600;7.310;2023-03-12T00:52:52;19.67;;;12.15;;
14052;SDS011;7101;51.600;7.310;2023-03-12T00:55:19;21.20;;;12.93;;
14052;SDS011;7101;51.600;7.310;2023-03-12T00:57:46;21.95;;;12.32;;
14052;SDS011;7101;51.600;7.310;2023-03-12T01:00:13;20.30;;;12.63;;
14052;SDS011;7101;51.600;7.310;2023-03-12T01:02:40;18.92;;;11.98;;
14052;SDS011;7101;51.600;7.310;2023-03-12T01:05:10;21.05;;;11.70;;
14052;SDS011;7101;51.600;7.310;2023-03-12T01:07:37;18.50;;;11.15;;
14052;SDS011;7101;51.600;7.310;2023-03-12T01:10:04;22.90;;;10.73;;
14052;SDS011;7101;51.600;7.310;2023-03-12T01:12:32;15.88;;;10.25;;
14052;SDS011;7101;51.600;7.310;2023-03-12T01:14:59;20.73;;;11.05;;
14052;SDS011;7101;51.600;7.310;2023-03-12T01:17:26;20.20;;;11.82;;
14052;SDS011;7101;51.600;7.310;2023-03-12T01:19:53;19.30;;;10.95;;
14052;SDS011;7101;51.600;7.310;2023-03-12T01:22:21;17.13;;;11.02;;
14052;SDS011;7101;51.600;7.310;2023-03-12T01:24:48;16.88;;;10.20;;
14052;SDS011;7101;51.600;7.310;2023-03-12T01:27:15;15.15;;;10.30;;
14052;SDS011;7101;51.600;7.310;2023-03-12T01:29:41;16.80;;;10.02;;
14052;SDS011;7101;51.600;7.310;2023-03-12T01:32:09;17.08;;;9.32;;
14052;SDS011;7101;51.600;7.310;2023-03-12T01:34:36;15.13;;;9.18;;
14052;SDS011;7101;51.600;7.310;2023-03-12T01:37:03;16.70;;;8.68;;
14052;SDS011;7101;51.600;7.310;2023-03-12T01:39:31;12.10;;;8.40;;
14052;SDS011;7101;51.600;7.310;2023-03-12T01:41:58;13.35;;;6.70;;
14052;SDS011;7101;51.600;7.310;2023-03-12T01:44:25;9.80;;;5.78;;
14052;SDS011;7101;51.600;7.310;2023-03-12T01:46:52;6.90;;;4.03;;
14052;SDS011;7101;51.600;7.310;2023-03-12T01:49:21;6.28;;;3.90;;
14052;SDS011;7101;51.600;7.310;2023-03-12T01:51:51;5.97;;;3.58;;
14052;SDS011;7101;51.600;7.310;2023-03-12T01:54:23;7.10;;;3.70;;
14052;SDS011;7101;51.600;7.310;2023-03-12T01:56:55;6.68;;;3.22;;
14052;SDS011;7101;51.600;7.310;2023-03-12T01:59:23;4.55;;;3.15;;
14052;SDS011;7101;51.600;7.310;2023-03-12T02:01:53;5.68;;;2.90;;
14052;SDS011;7101;51.600;7.310;2023-03-12T02:04:20;5.88;;;2.50;;
14052;SDS011;7101;51.600;7.310;2023-03-12T02:06:50;5.70;;;2.45;;
14052;SDS011;7101;51.600;7.310;2023-03-12T02:09:23;5.90;;;2.50;;
14052;SDS011;7101;51.600;7.310;2023-03-12T02:11:50;4.85;;;2.20;;
14052;SDS011;7101;51.600;7.310;2023-03-12T02:14:18;7.28;;;2.20;;
14052;SDS011;7101;51.600;7.310;2023-03-12T02:16:45;6.07;;;2.20;;
14052;SDS011;7101;51.600;7.310;2023-03-12T02:19:15;5.25;;;2.17;;
14052;SDS011;7101;51.600;7.310;2023-03-12T02:21:47;4.28;;;1.98;;
14052;SDS011;7101;51.600;7.310;2023-03-12T02:24:16;4.95;;;2.05;;
14052;SDS011;7101;51.600;7.310;2023-03-12T02:26:51;6.70;;;2.17;;
14052;SDS011;7101;51.600;7.310;2023-03-12T02:29:18;4.50;;;2.08;;
14052;SDS011;7101;51.600;7.310;2023-03-12T02:31:46;5.45;;;2.30;;
14052;SDS011;7101;51.600;7.310;2023-03-12T02:34:16;5.55;;;2.20;;
14052;SDS011;7101;51.600;7.310;2023-03-12T02:36:43;5.38;;;2.15;;
14052;SDS011;7101;51.600;7.310;2023-03-12T02:39:10;4.85;;;2.50;;
14052;SDS011;7101;51.600;7.310;2023-03-12T02:41:38;4.88;;;2.22;;
14052;SDS011;7101;51.600;7.310;2023-03-12T02:44:10;7.13;;;2.22;;
14052;SDS011;7101;51.600;7.310;2023-03-12T02:46:40;3.92;;;2.15;;
14052;SDS011;7101;51.600;7.310;2023-03-12T02:49:08;5.05;;;2.15;;
14052;SDS011;7101;51.600;7.310;2023-03-12T02:51:37;5.95;;;2.47;;
14052;SDS011;7101;51.600;7.310;2023-03-12T02:54:04;4.82;;;2.30;;
14052;SDS011;7101;51.600;7.310;2023-03-12T02:56:32;8.40;;;2.67;;
14052;SDS011;7101;51.600;7.310;2023-03-12T02:58:59;4.25;;;2.10;;
14052;SDS011;7101;51.600;7.310;2023-03-12T03:01:27;4.10;;;2.00;;
14052;SDS011;7101;51.600;7.310;2023-03-12T03:03:57;5.22;;;2.13;;
14052;SDS011;7101;51.600;7.310;2023-03-12T03:06:25;4.57;;;2.20;;
14052;SDS011;7101;51.600;7.310;2023-03-12T03:08:51;5.13;;;2.20;;
14052;SDS011;7101;51.600;7.310;2023-03-12T03:11:19;5.93;;;2.20;;
14052;SDS011;7101;51.600;7.310;2023-03-12T03:13:48;5.72;;;2.25;;
14052;SDS011;7101;51.600;7.310;2023-03-12T03:16:15;6.63;;;2.38;;
14052;SDS011;7101;51.600;7.310;2023-03-12T03:18:43;5.82;;;2.20;;
14052;SDS011;7101;51.600;7.310;2023-03-12T03:21:10;7.18;;;2.30;;
14052;SDS011;7101;51.600;7.310;2023-03-12T03:23:40;10.50;;;2.47;;
14052;SDS011;7101;51.600;7.310;2023-03-12T03:26:07;7.00;;;2.17;;
14052;SDS011;7101;51.600;7.310;2023-03-12T03:28:34;7.75;;;2.30;;
14052;SDS011;7101;51.600;7.310;2023-03-12T03:31:01;6.65;;;2.72;;
14052;SDS011;7101;51.600;7.310;2023-03-12T03:33:30;6.20;;;2.33;;
14052;SDS011;7101;51.600;7.310;2023-03-12T03:36:00;4.43;;;2.00;;
14052;SDS011;7101;51.600;7.310;2023-03-12T03:38:28;3.80;;;2.10;;
14052;SDS011;7101;51.600;7.310;2023-03-12T03:40:56;7.00;;;2.28;;
14052;SDS011;7101;51.600;7.310;2023-03-12T03:43:23;3.25;;;1.90;;
14052;SDS011;7101;51.600;7.310;2023-03-12T03:45:55;4.18;;;2.15;;
14052;SDS011;7101;51.600;7.310;2023-03-12T03:48:22;7.55;;;2.28;;
14052;SDS011;7101;51.600;7.310;2023-03-12T03:50:49;8.35;;;2.45;;
14052;SDS011;7101;51.600;7.310;2023-03-12T03:53:18;6.70;;;2.28;;
14052;SDS011;7101;51.600;7.310;2023-03-12T03:55:46;5.35;;;2.40;;
14052;SDS011;7101;51.600;7.310;2023-03-12T03:58:13;6.95;;;2.58;;
14052;SDS011;7101;51.600;7.310;2023-03-12T04:00:42;8.25;;;2.65;;
14052;SDS011;7101;51.600;7.310;2023-03-12T04:03:11;5.93;;;2.53;;
14052;SDS011;7101;51.600;7.310;2023-03-12T04:05:38;5.43;;;2.92;;
14052;SDS011;7101;51.600;7.310;2023-03-12T04:08:09;8.88;;;2.85;;
14052;SDS011;7101;51.600;7.310;2023-03-12T04:10:37;5.95;;;2.47;;
14052;SDS011;7101;51.600;7.310;2023-03-12T04:13:04;5.25;;;2.65;;
14052;SDS011;7101;51.600;7.310;2023-03-12T04:15:31;5.68;;;2.70;;
14052;SDS011;7101;51.600;7.310;2023-03-12T04:17:58;6.53;;;2.45;;
14052;SDS011;7101;51.600;7.310;2023-03-12T04:20:25;5.90;;;2.70;;
14052;SDS011;7101;51.600;7.310;2023-03-12T04:22:51;5.47;;;2.65;;
14052;SDS011;7101;51.600;7.310;2023-03-12T04:25:18;3.60;;;2.40;;
14052;SDS011;7101;51.600;7.310;2023-03-12T04:27:46;6.63;;;2.67;;
14052;SDS011;7101;51.600;7.310;2023-03-12T04:30:13;8.55;;;2.50;;
14052;SDS011;7101;51.600;7.310;2023-03-12T04:32:40;10.98;;;3.10;;
14052;SDS011;7101;51.600;7.310;2023-03-12T04:35:07;5.15;;;2.22;;
14052;SDS011;7101;51.600;7.310;2023-03-12T04:37:34;4.95;;;2.47;;
14052;SDS011;7101;51.600;7.310;2023-03-12T04:40:01;3.67;;;2.22;;
14052;SDS011;7101;51.600;7.310;2023-03-12T04:42:34;4.57;;;2.60;;
14052;SDS011;7101;51.600;7.310;2023-03-12T04:45:03;6.43;;;2.80;;
14052;SDS011;7101;51.600;7.310;2023-03-12T04:47:32;6.25;;;2.88;;
14052;SDS011;7101;51.600;7.310;2023-03-12T04:49:59;5.68;;;2.78;;
14052;SDS011;7101;51.600;7.310;2023-03-12T04:52:26;8.77;;;2.85;;
14052;SDS011;7101;51.600;7.310;2023-03-12T04:54:53;6.22;;;2.70;;
14052;SDS011;7101;51.600;7.310;2023-03-12T04:57:20;7.45;;;2.15;;
14052;SDS011;7101;51.600;7.310;2023-03-12T04:59:47;4.65;;;2.00;;
14052;SDS011;7101;51.600;7.310;2023-03-12T05:02:15;5.53;;;2.08;;
14052;SDS011;7101;51.600;7.310;2023-03-12T05:04:42;5.75;;;2.03;;
14052;SDS011;7101;51.600;7.310;2023-03-12T05:07:09;5.43;;;2.13;;
14052;SDS011;7101;51.600;7.310;2023-03-12T05:09:36;7.05;;;2.28;;
14052;SDS011;7101;51.600;7.310;2023-03-12T05:12:03;6.82;;;2.10;;
14052;SDS011;7101;51.600;7.310;2023-03-12T05:14:30;5.47;;;2.42;;
14052;SDS011;7101;51.600;7.310;2023-03-12T05:16:57;4.85;;;2.22;;
14052;SDS011;7101;51.600;7.310;2023-03-12T05:19:25;5.07;;;2.10;;
14052;SDS011;7101;51.600;7.310;2023-03-12T05:21:52;5.50;;;2.10;;
14052;SDS011;7101;51.600;7.310;2023-03-12T05:24:19;8.13;;;2.25;;
14052;SDS011;7101;51.600;7.310;2023-03-12T05:26:46;7.97;;;2.60;;
14052;SDS011;7101;51.600;7.310;2023-03-12T05:29:13;6.55;;;2.17;;
14052;SDS011;7101;51.600;7.310;2023-03-12T05:31:40;6.80;;;1.88;;
14052;SDS011;7101;51.600;7.310;2023-03-12T05:34:07;5.30;;;2.30;;
14052;SDS011;7101;51.600;7.310;2023-03-12T05:36:37;6.72;;;2.35;;
14052;SDS011;7101;51.600;7.310;2023-03-12T05:39:04;7.13;;;2.10;;
14052;SDS011;7101;51.600;7.310;2023-03-12T05:41:32;4.72;;;2.17;;
14052;SDS011;7101;51.600;7.310;2023-03-12T05:43:59;5.75;;;2.10;;
14052;SDS011;7101;51.600;7.310;2023-03-12T05:46:26;11.98;;;3.05;;
14052;SDS011;7101;51.600;7.310;2023-03-12T05:48:53;5.50;;;1.95;;
14052;SDS011;7101;51.600;7.310;2023-03-12T05:51:20;5.85;;;2.42;;
14052;SDS011;7101;51.600;7.310;2023-03-12T05:53:48;8.02;;;1.95;;
14052;SDS011;7101;51.600;7.310;2023-03-12T05:56:16;4.60;;;1.85;;
14052;SDS011;7101;51.600;7.310;2023-03-12T05:58:43;4.60;;;2.00;;
14052;SDS011;7101;51.600;7.310;2023-03-12T06:01:14;4.10;;;2.00;;
14052;SDS011;7101;51.600;7.310;2023-03-12T06:03:42;5.32;;;2.30;;
14052;SDS011;7101;51.600;7.310;2023-03-12T06:06:09;6.93;;;2.25;;
14052;SDS011;7101;51.600;7.310;2023-03-12T06:08:36;6.03;;;2.00;;
14052;SDS011;7101;51.600;7.310;2023-03-12T06:11:05;4.82;;;2.20;;
14052;SDS011;7101;51.600;7.310;2023-03-12T06:13:31;7.13;;;2.22;;
14052;SDS011;7101;51.600;7.310;2023-03-12T06:16:02;6.78;;;2.53;;
14052;SDS011;7101;51.600;7.310;2023-03-12T06:18:29;5.28;;;2.50;;
14052;SDS011;7101;51.600;7.310;2023-03-12T06:21:06;4.40;;;1.63;;
14052;SDS011;7101;51.600;7.310;2023-03-12T06:23:34;6.50;;;2.38;;
14052;SDS011;7101;51.600;7.310;2023-03-12T06:26:01;4.28;;;1.88;;
14052;SDS011;7101;51.600;7.310;2023-03-12T06:28:29;3.72;;;1.77;;
14052;SDS011;7101;51.600;7.310;2023-03-12T06:30:56;6.47;;;2.15;;
14052;SDS011;7101;51.600;7.310;2023-03-12T06:33:23;5.47;;;1.77;;
14052;SDS011;7101;51.600;7.310;2023-03-12T06:35:52;6.10;;;2.40;;
14052;SDS011;7101;51.600;7.310;2023-03-12T06:38:19;6.13;;;2.13;;
14052;SDS011;7101;51.600;7.310;2023-03-12T06:40:52;5.25;;;1.80;;
14052;SDS011;7101;51.600;7.310;2023-03-12T06:43:20;4.78;;;2.10;;
14052;SDS011;7101;51.600;7.310;2023-03-12T06:45:48;6.28;;;2.22;;
14052;SDS011;7101;51.600;7.310;2023-03-12T06:48:16;5.53;;;2.08;;
14052;SDS011;7101;51.600;7.310;2023-03-12T06:50:43;6.93;;;2.88;;
14052;SDS011;7101;51.600;7.310;2023-03-12T06:53:10;7.38;;;2.58;;
14052;SDS011;7101;51.600;7.310;2023-03-12T06:55:36;6.20;;;2.58;;
14052;SDS011;7101;51.600;7.310;2023-03-12T06:58:03;6.45;;;2.40;;
14052;SDS011;7101;51.600;7.310;2023-03-12T07:00:30;8.68;;;2.58;;
14052;SDS011;7101;51.600;7.310;2023-03-12T07:02:58;9.90;;;2.58;;
14052;SDS011;7101;51.600;7.310;2023-03-12T07:05:25;5.50;;;2.83;;
14052;SDS011;7101;51.600;7.310;2023-03-12T07:07:53;4.15;;;2.38;;
14052;SDS011;7101;51.600;7.310;2023-03-12T07:10:20;6.18;;;2.30;;
14052;SDS011;7101;51.600;7.310;2023-03-12T07:12:47;8.52;;;2.55;;
14052;SDS011;7101;51.600;7.310;2023-03-12T07:15:14;5.50;;;2.40;;
14052;SDS011;7101;51.600;7.310;2023-03-12T07:17:41;7.97;;;2.78;;
14052;SDS011;7101;51.600;7.310;2023-03-12T07:20:10;6.20;;;2.25;;
14052;SDS011;7101;51.600;7.310;2023-03-12T07:22:37;5.65;;;2.55;;
14052;SDS011;7101;51.600;7.310;2023-03-12T07:25:05;5.07;;;2.38;;
14052;SDS011;7101;51.600;7.310;2023-03-12T07:27:32;6.13;;;2.88;;
14052;SDS011;7101;51.600;7.310;2023-03-12T07:30:00;10.30;;;3.22;;
14052;SDS011;7101;51.600;7.310;2023-03-12T07:32:27;8.55;;;2.83;;
14052;SDS011;7101;51.600;7.310;2023-03-12T07:34:53;5.22;;;2.72;;
14052;SDS011;7101;51.600;7.310;2023-03-12T07:37:22;9.27;;;4.00;;
14052;SDS011;7101;51.600;7.310;2023-03-12T07:39:49;8.13;;;3.75;;
14052;SDS011;7101;51.600;7.310;2023-03-12T07:42:18;9.52;;;3.45;;
14052;SDS011;7101;51.600;7.310;2023-03-12T07:44:45;5.60;;;3.35;;
14052;SDS011;7101;51.600;7.310;2023-03-12T07:47:13;7.57;;;3.50;;
14052;SDS011;7101;51.600;7.310;2023-03-12T07:49:40;8.43;;;3.85;;
14052;SDS011;7101;51.600;7.310;2023-03-12T07:52:06;8.05;;;3.67;;
14052;SDS011;7101;51.600;7.310;2023-03-12T07:54:37;13.15;;;5.70;;
14052;SDS011;7101;51.600;7.310;2023-03-12T07:57:04;7.82;;;3.90;;
14052;SDS011;7101;51.600;7.310;2023-03-12T07:59:31;10.05;;;5.35;;
14052;SDS011;7101;51.600;7.310;2023-03-12T08:01:58;6.93;;;4.13;;
14052;SDS011;7101;51.600;7.310;2023-03-12T08:04:24;10.57;;;5.80;;
14052;SDS011;7101;51.600;7.310;2023-03-12T08:06:51;9.45;;;4.18;;
14052;SDS011;7101;51.600;7.310;2023-03-12T08:09:18;9.13;;;4.20;;
14052;SDS011;7101;51.600;7.310;2023-03-12T08:11:46;12.32;;;3.50;;
14052;SDS011;7101;51.600;7.310;2023-03-12T08:14:13;8.57;;;3.00;;
14052;SDS011;7101;51.600;7.310;2023-03-12T08:16:40;6.53;;;3.10;;
14052;SDS011;7101;51.600;7.310;2023-03-12T08:19:06;8.05;;;3.55;;
14052;SDS011;7101;51.600;7.310;2023-03-12T08:21:33;7.35;;;3.70;;
14052;SDS011;7101;51.600;7.310;2023-03-12T08:24:01;8.32;;;3.72;;
14052;SDS011;7101;51.600;7.310;2023-03-12T08:26:28;12.05;;;4.20;;
14052;SDS011;7101;51.600;7.310;2023-03-12T08:28:56;8.73;;;3.92;;
14052;SDS011;7101;51.600;7.310;2023-03-12T08:31:24;4.75;;;3.40;;
14052;SDS011;7101;51.600;7.310;2023-03-12T08:33:51;13.63;;;3.83;;
14052;SDS011;7101;51.600;7.310;2023-03-12T08:36:18;16.88;;;4.03;;
14052;SDS011;7101;51.600;7.310;2023-03-12T08:38:45;8.63;;;3.50;;
14052;SDS011;7101;51.600;7.310;2023-03-12T08:41:11;10.02;;;3.30;;
14052;SDS011;7101;51.600;7.310;2023-03-12T08:43:38;6.63;;;3.03;;
14052;SDS011;7101;51.600;7.310;2023-03-12T08:46:06;6.38;;;3.22;;
14052;SDS011;7101;51.600;7.310;2023-03-12T08:48:33;10.57;;;3.55;;
14052;SDS011;7101;51.600;7.310;2023-03-12T08:51:01;7.43;;;4.00;;
14052;SDS011;7101;51.600;7.310;2023-03-12T08:53:30;7.45;;;3.55;;
14052;SDS011;7101;51.600;7.310;2023-03-12T08:55:59;6.90;;;3.40;;
14052;SDS011;7101;51.600;7.310;2023-03-12T08:58:26;6.45;;;3.10;;
14052;SDS011;7101;51.600;7.310;2023-03-12T09:00:55;6.00;;;3.15;;
14052;SDS011;7101;51.600;7.310;2023-03-12T09:03:24;7.25;;;3.50;;
14052;SDS011;7101;51.600;7.310;2023-03-12T09:06:00;5.93;;;3.17;;
14052;SDS011;7101;51.600;7.310;2023-03-12T09:08:28;9.00;;;3.33;;
14052;SDS011;7101;51.600;7.310;2023-03-12T09:10:58;5.45;;;2.90;;
14052;SDS011;7101;51.600;7.310;2023-03-12T09:13:26;6.38;;;3.22;;
14052;SDS011;7101;51.600;7.310;2023-03-12T09:15:57;6.10;;;3.33;;
14052;SDS011;7101;51.600;7.310;2023-03-12T09:18:26;7.65;;;3.75;;
14052;SDS011;7101;51.600;7.310;2023-03-12T09:20:54;6.65;;;4.45;;
14052;SDS011;7101;51.600;7.310;2023-03-12T09:23:21;7.53;;;3.55;;
14052;SDS011;7101;51.600;7.310;2023-03-12T09:25:49;8.05;;;3.80;;
14052;SDS011;7101;51.600;7.310;2023-03-12T09:28:16;5.80;;;3.80;;
14052;SDS011;7101;51.600;7.310;2023-03-12T09:30:43;8.38;;;4.13;;
14052;SDS011;7101;51.600;7.310;2023-03-12T09:33:10;7.38;;;3.63;;
14052;SDS011;7101;51.600;7.310;2023-03-12T09:35:38;9.35;;;4.20;;
14052;SDS011;7101;51.600;7.310;2023-03-12T09:38:05;6.72;;;4.00;;
14052;SDS011;7101;51.600;7.310;2023-03-12T09:40:32;9.27;;;3.30;;
14052;SDS011;7101;51.600;7.310;2023-03-12T09:43:05;5.93;;;3.33;;
14052;SDS011;7101;51.600;7.310;2023-03-12T09:45:36;6.32;;;3.60;;
14052;SDS011;7101;51.600;7.310;2023-03-12T09:48:05;5.65;;;4.00;;
14052;SDS011;7101;51.600;7.310;2023-03-12T09:50:40;6.63;;;3.53;;
14052;SDS011;7101;51.600;7.310;2023-03-12T09:53:09;3.63;;;2.95;;
14052;SDS011;7101;51.600;7.310;2023-03-12T09:55:41;5.18;;;3.35;;
14052;SDS011;7101;51.600;7.310;2023-03-12T09:58:11;6.22;;;3.58;;
14052;SDS011;7101;51.600;7.310;2023-03-12T10:00:39;4.53;;;3.25;;
14052;SDS011;7101;51.600;7.310;2023-03-12T10:03:13;6.10;;;2.72;;
14052;SDS011;7101;51.600;7.310;2023-03-12T10:05:54;5.32;;;3.03;;
14052;SDS011;7101;51.600;7.310;2023-03-12T10:08:34;5.40;;;3.30;;
14052;SDS011;7101;51.600;7.310;2023-03-12T10:11:09;5.63;;;2.95;;
14052;SDS011;7101;51.600;7.310;2023-03-12T10:13:52;5.68;;;3.00;;
14052;SDS011;7101;51.600;7.310;2023-03-12T10:16:40;6.20;;;3.15;;
14052;SDS011;7101;51.600;7.310;2023-03-12T10:19:20;7.78;;;3.38;;
14052;SDS011;7101;51.600;7.310;2023-03-12T10:22:03;5.88;;;3.05;;
14052;SDS011;7101;51.600;7.310;2023-03-12T10:24:42;6.22;;;2.70;;
14052;SDS011;7101;51.600;7.310;2023-03-12T10:27:16;7.72;;;3.88;;
14052;SDS011;7101;51.600;7.310;2023-03-12T10:29:44;4.22;;;2.88;;
14052;SDS011;7101;51.600;7.310;2023-03-12T10:32:14;4.80;;;3.15;;
14052;SDS011;7101;51.600;7.310;2023-03-12T10:34:46;6.22;;;3.97;;
14052;SDS011;7101;51.600;7.310;2023-03-12T10:37:17;6.22;;;4.78;;
14052;SDS011;7101;51.600;7.310;2023-03-12T10:39:47;8.32;;;5.32;;
14052;SDS011;7101;51.600;7.310;2023-03-12T10:42:16;3.85;;;3.15;;
14052;SDS011;7101;51.600;7.310;2023-03-12T10:44:44;3.30;;;2.58;;
14052;SDS011;7101;51.600;7.310;2023-03-12T10:47:17;5.32;;;3.50;;
14052;SDS011;7101;51.600;7.310;2023-03-12T10:49:57;3.22;;;2.20;;
14052;SDS011;7101;51.600;7.310;2023-03-12T10:52:39;2.58;;;2.38;;
14052;SDS011;7101;51.600;7.310;2023-03-12T10:55:10;4.75;;;3.10;;
14052;SDS011;7101;51.600;7.310;2023-03-12T10:57:39;3.15;;;2.80;;
14052;SDS011;7101;51.600;7.310;2023-03-12T11:00:07;2.55;;;2.33;;
14052;SDS011;7101;51.600;7.310;2023-03-12T11:02:37;2.53;;;2.13;;
14052;SDS011;7101;51.600;7.310;2023-03-12T11:05:17;3.05;;;2.63;;
14052;SDS011;7101;51.600;7.310;2023-03-12T11:07:48;2.90;;;2.58;;
14052;SDS011;7101;51.600;7.310;2023-03-12T11:10:21;3.05;;;2.72;;
14052;SDS011;7101;51.600;7.310;2023-03-12T11:12:51;3.97;;;2.40;;
14052;SDS011;7101;51.600;7.310;2023-03-12T11:15:27;2.63;;;2.42;;
14052;SDS011;7101;51.600;7.310;2023-03-12T11:20:51;5.07;;;4.22;;
14052;SDS011;7101;51.600;7.310;2023-03-12T11:23:22;4.25;;;3.78;;
14052;SDS011;7101;51.600;7.310;2023-03-12T11:25:52;4.30;;;3.58;;
14052;SDS011;7101;51.600;7.310;2023-03-12T11:28:22;6.07;;;3.50;;
14052;SDS011;7101;51.600;7.310;2023-03-12T11:30:53;4.72;;;3.78;;
14052;SDS011;7101;51.600;7.310;2023-03-12T11:33:23;4.28;;;3.67;;
14052;SDS011;7101;51.600;7.310;2023-03-12T11:35:52;4.63;;;4.00;;
14052;SDS011;7101;51.600;7.310;2023-03-12T11:38:32;5.38;;;4.40;;
14052;SDS011;7101;51.600;7.310;2023-03-12T11:41:07;7.15;;;4.97;;
14052;SDS011;7101;51.600;7.310;2023-03-12T11:43:55;5.20;;;4.70;;
14052;SDS011;7101;51.600;7.310;2023-03-12T11:46:59;6.10;;;5.50;;
14052;SDS011;7101;51.600;7.310;2023-03-12T11:49:40;6.43;;;5.40;;
14052;SDS011;7101;51.600;7.310;2023-03-12T11:52:23;9.95;;;6.20;;
14052;SDS011;7101;51.600;7.310;2023-03-12T11:55:08;8.57;;;6.40;;
14052;SDS011;7101;51.600;7.310;2023-03-12T11:57:44;8.02;;;6.35;;
14052;SDS011;7101;51.600;7.310;2023-03-12T12:00:23;8.43;;;6.55;;
14052;SDS011;7101;51.600;7.310;2023-03-12T12:03:04;9.40;;;7.05;;
14052;SDS011;7101;51.600;7.310;2023-03-12T12:05:50;11.27;;;7.70;;
14052;SDS011;7101;51.600;7.310;2023-03-12T12:08:31;9.73;;;8.10;;
14052;SDS011;7101;51.600;7.310;2023-03-12T12:11:15;14.43;;;11.25;;
14052;SDS011;7101;51.600;7.310;2023-03-12T12:13:51;17.55;;;12.52;;
14052;SDS011;7101;51.600;7.310;2023-03-12T12:16:37;15.45;;;10.43;;
14052;SDS011;7101;51.600;7.310;2023-03-12T12:19:15;10.13;;;8.55;;
14052;SDS011;7101;51.600;7.310;2023-03-12T12:21:51;11.63;;;9.20;;
14052;SDS011;7101;51.600;7.310;2023-03-12T12:24:32;11.57;;;9.23;;
14052;SDS011;7101;51.600;7.310;2023-03-12T12:27:10;12.10;;;9.77;;
14052;SDS011;7101;51.600;7.310;2023-03-12T12:29:51;14.15;;;10.02;;
14052;SDS011;7101;51.600;7.310;2023-03-12T12:32:31;12.68;;;10.48;;
14052;SDS011;7101;51.600;7.310;2023-03-12T12:35:14;14.85;;;11.10;;
14052;SDS011;7101;51.600;7.310;2023-03-12T12:37:52;15.77;;;10.93;;
14052;SDS011;7101;51.600;7.310;2023-03-12T12:40:24;15.25;;;11.48;;
14052;SDS011;7101;51.600;7.310;2023-03-12T12:43:00;14.32;;;10.90;;
14052;SDS011;7101;51.600;7.310;2023-03-12T12:45:31;13.27;;;11.45;;
14052;SDS011;7101;51.600;7.310;2023-03-12T12:47:59;15.77;;;12.35;;
14052;SDS011;7101;51.600;7.310;2023-03-12T12:50:31;16.13;;;12.60;;
14052;SDS011;7101;51.600;7.310;2023-03-12T12:53:03;14.73;;;12.43;;
14052;SDS011;7101;51.600;7.310;2023-03-12T12:55:39;14.40;;;12.07;;
14052;SDS011;7101;51.600;7.310;2023-03-12T12:58:13;18.25;;;12.75;;
14052;SDS011;7101;51.600;7.310;2023-03-12T13:00:47;18.27;;;12.52;;
14052;SDS011;7101;51.600;7.310;2023-03-12T13:03:16;16.42;;;12.52;;
14052;SDS011;7101;51.600;7.310;2023-03-12T13:05:47;17.05;;;12.00;;
14052;SDS011;7101;51.600;7.310;2023-03-12T13:08:34;14.45;;;11.35;;
14052;SDS011;7101;51.600;7.310;2023-03-12T13:11:24;14.48;;;11.18;;
14052;SDS011;7101;51.600;7.310;2023-03-12T13:14:13;15.07;;;11.73;;
14052;SDS011;7101;51.600;7.310;2023-03-12T13:16:45;15.05;;;11.88;;
14052;SDS011;7101;51.600;7.310;2023-03-12T13:19:25;17.92;;;13.50;;
14052;SDS011;7101;51.600;7.310;2023-03-12T13:21:58;28.95;;;19.17;;
14052;SDS011;7101;51.600;7.310;2023-03-12T13:24:34;18.13;;;12.25;;
14052;SDS011;7101;51.600;7.310;2023-03-12T13:27:10;17.10;;;12.45;;
14052;SDS011;7101;51.600;7.310;2023-03-12T13:29:43;17.77;;;11.90;;
14052;SDS011;7101;51.600;7.310;2023-03-12T13:35:05;20.95;;;13.48;;
14052;SDS011;7101;51.600;7.310;2023-03-12T13:37:59;19.65;;;12.88;;
14052;SDS011;7101;51.600;7.310;2023-03-12T13:43:30;22.90;;;12.80;;
14052;SDS011;7101;51.600;7.310;2023-03-12T13:46:27;19.38;;;12.65;;
14052;SDS011;7101;51.600;7.310;2023-03-12T13:49:09;17.75;;;12.45;;
14052;SDS011;7101;51.600;7.310;2023-03-12T13:51:46;19.35;;;12.25;;
14052;SDS011;7101;51.600;7.310;2023-03-12T13:54:26;17.42;;;12.75;;
14052;SDS011;7101;51.600;7.310;2023-03-12T13:56:57;17.27;;;11.63;;
14052;SDS011;7101;51.600;7.310;2023-03-12T13:59:26;18.63;;;12.68;;
14052;SDS011;7101;51.600;7.310;2023-03-12T14:01:56;20.67;;;12.40;;
14052;SDS011;7101;51.600;7.310;2023-03-12T14:04:32;19.95;;;11.85;;
14052;SDS011;7101;51.600;7.310;2023-03-12T14:07:12;19.92;;;12.50;;
14052;SDS011;7101;51.600;7.310;2023-03-12T14:09:57;19.48;;;12.23;;
14052;SDS011;7101;51.600;7.310;2023-03-12T14:12:34;24.42;;;13.60;;
14052;SDS011;7101;51.600;7.310;2023-03-12T14:15:16;22.42;;;13.00;;
14052;SDS011;7101;51.600;7.310;2023-03-12T14:17:54;23.52;;;12.55;;
14052;SDS011;7101;51.600;7.310;2023-03-12T14:20:24;23.20;;;11.55;;
14052;SDS011;7101;51.600;7.310;2023-03-12T14:22:52;25.17;;;11.38;;
14052;SDS011;7101;51.600;7.310;2023-03-12T14:25:25;25.77;;;11.77;;
14052;SDS011;7101;51.600;7.310;2023-03-12T14:27:58;19.75;;;10.10;;
14052;SDS011;7101;51.600;7.310;2023-03-12T14:30:28;22.70;;;10.02;;
14052;SDS011;7101;51.600;7.310;2023-03-12T14:33:01;23.75;;;9.50;;
14052;SDS011;7101;51.600;7.310;2023-03-12T14:35:31;22.73;;;9.10;;
14052;SDS011;7101;51.600;7.310;2023-03-12T14:38:02;21.13;;;9.00;;
14052;SDS011;7101;51.600;7.310;2023-03-12T14:40:36;21.10;;;8.25;;
14052;SDS011;7101;51.600;7.310;2023-03-12T14:43:21;21.60;;;8.98;;
14052;SDS011;7101;51.600;7.310;2023-03-12T14:45:50;21.15;;;8.32;;
14052;SDS011;7101;51.600;7.310;2023-03-12T14:48:19;23.70;;;8.85;;
14052;SDS011;7101;51.600;7.310;2023-03-12T14:50:47;22.40;;;7.82;;
14052;SDS011;7101;51.600;7.310;2023-03-12T14:53:19;24.58;;;8.63;;
14052;SDS011;7101;51.600;7.310;2023-03-12T14:55:58;26.02;;;8.07;;
14052;SDS011;7101;51.600;7.310;2023-03-12T14:58:26;22.92;;;8.10;;
14052;SDS011;7101;51.600;7.310;2023-03-12T15:00:53;20.85;;;7.25;;
14052;SDS011;7101;51.600;7.310;2023-03-12T15:03:23;24.83;;;7.25;;
14052;SDS011;7101;51.600;7.310;2023-03-12T15:05:50;23.27;;;6.97;;
14052;SDS011;7101;51.600;7.310;2023-03-12T15:08:17;24.52;;;7.15;;
14052;SDS011;7101;51.600;7.310;2023-03-12T15:10:46;19.90;;;6.88;;
14052;SDS011;7101;51.600;7.310;2023-03-12T15:13:16;23.23;;;7.82;;
14052;SDS011;7101;51.600;7.310;2023-03-12T15:15:45;22.33;;;7.18;;
14052;SDS011;7101;51.600;7.310;2023-03-12T15:18:15;25.75;;;7.45;;
14052;SDS011;7101;51.600;7.310;2023-03-12T15:20:44;29.00;;;7.45;;